sensor_id;sensor_type;location;lat;lon;timestamp;pressure;altitude;pressure_sealevel;temperature;humidity
76728;BME280;65652;53.132;18.026;2023-04-25T00:00:24;99878.34;;;11.81;78.32
76728;BME280;65652;53.132;18.026;2023-04-25T00:03:11;99879.39;;;11.77;78.53
76728;BME280;65652;53.132;18.026;2023-04-25T00:05:37;99879.61;;;11.75;78.17
76728;BME280;65652;53.132;18.026;2023-04-25T00:08:04;99879.41;;;11.74;78.42
76728;BME280;65652;53.132;18.026;2023-04-25T00:10:31;99873.93;;;11.72;78.37
76728;BME280;65652;53.132;18.026;2023-04-25T00:12:57;99878.97;;;11.72;78.25
76728;BME280;65652;53.132;18.026;2023-04-25T00:15:23;99875.39;;;11.69;78.37
76728;BME280;65652;53.132;18.026;2023-04-25T00:17:50;99874.34;;;11.67;78.35
76728;BME280;65652;53.132;18.026;2023-04-25T00:20:18;99876.45;;;11.64;78.44
76728;BME280;65652;53.132;18.026;2023-04-25T00:22:44;99874.79;;;11.61;78.38
76728;BME280;65652;53.132;18.026;2023-04-25T00:25:11;99878.66;;;11.61;78.17
76728;BME280;65652;53.132;18.026;2023-04-25T00:27:37;99883.66;;;11.61;78.00
76728;BME280;65652;53.132;18.026;2023-04-25T00:30:05;99887.03;;;11.59;77.45
76728;BME280;65652;53.132;18.026;2023-04-25T00:32:31;99884.54;;;11.55;77.23
76728;BME280;65652;53.132;18.026;2023-04-25T00:34:58;99888.07;;;11.51;77.17
76728;BME280;65652;53.132;18.026;2023-04-25T00:37:24;99887.45;;;11.49;76.89
76728;BME280;65652;53.132;18.026;2023-04-25T00:39:50;99888.87;;;11.46;76.57
76728;BME280;65652;53.132;18.026;2023-04-25T00:42:17;99893.05;;;11.41;76.17
76728;BME280;65652;53.132;18.026;2023-04-25T00:44:44;99901.75;;;11.38;76.17
76728;BME280;65652;53.132;18.026;2023-04-25T00:47:11;99895.98;;;11.33;76.07
76728;BME280;65652;53.132;18.026;2023-04-25T00:49:37;99896.01;;;11.30;75.73
76728;BME280;65652;53.132;18.026;2023-04-25T00:52:04;99901.84;;;11.26;75.54
76728;BME280;65652;53.132;18.026;2023-04-25T00:54:30;99907.23;;;11.22;74.90
76728;BME280;65652;53.132;18.026;2023-04-25T00:56:57;99905.34;;;11.17;74.62
76728;BME280;65652;53.132;18.026;2023-04-25T00:59:23;99904.33;;;11.13;74.40
76728;BME280;65652;53.132;18.026;2023-04-25T01:01:59;99908.16;;;11.11;74.42
76728;BME280;65652;53.132;18.026;2023-04-25T01:04:27;99907.23;;;11.05;74.66
76728;BME280;65652;53.132;18.026;2023-04-25T01:06:55;99904.55;;;11.00;74.81
76728;BME280;65652;53.132;18.026;2023-04-25T01:09:22;99906.01;;;10.96;74.63
76728;BME280;65652;53.132;18.026;2023-04-25T01:11:49;99908.52;;;10.91;75.00
76728;BME280;65652;53.132;18.026;2023-04-25T01:14:16;99906.85;;;10.85;74.69
76728;BME280;65652;53.132;18.026;2023-04-25T01:16:44;99909.75;;;10.80;74.76
76728;BME280;65652;53.132;18.026;2023-04-25T01:19:11;99906.71;;;10.76;74.94
76728;BME280;65652;53.132;18.026;2023-04-25T01:21:39;99906.55;;;10.70;75.10
76728;BME280;65652;53.132;18.026;2023-04-25T01:24:06;99910.56;;;10.66;74.98
76728;BME280;65652;53.132;18.026;2023-04-25T01:26:34;99913.16;;;10.61;74.67
76728;BME280;65652;53.132;18.026;2023-04-25T01:29:04;99912.23;;;10.56;74.51
76728;BME280;65652;53.132;18.026;2023-04-25T01:31:32;99911.98;;;10.52;74.23
76728;BME280;65652;53.132;18.026;2023-04-25T01:34:00;99913.33;;;10.47;74.14
76728;BME280;65652;53.132;18.026;2023-04-25T01:36:29;99918.66;;;10.43;73.96
76728;BME280;65652;53.132;18.026;2023-04-25T01:38:57;99916.81;;;10.39;74.32
76728;BME280;65652;53.132;18.026;2023-04-25T01:41:24;99915.77;;;10.35;74.13
76728;BME280;65652;53.132;18.026;2023-04-25T01:43:52;99913.08;;;10.32;74.93
76728;BME280;65652;53.132;18.026;2023-04-25T01:46:19;99921.16;;;10.29;74.65
76728;BME280;65652;53.132;18.026;2023-04-25T01:48:46;99921.06;;;10.26;74.86
76728;BME280;65652;53.132;18.026;2023-04-25T01:51:14;99925.81;;;10.23;74.97
76728;BME280;65652;53.132;18.026;2023-04-25T01:53:42;99920.65;;;10.19;75.21
76728;BME280;65652;53.132;18.026;2023-04-25T01:56:09;99925.48;;;10.16;75.32
76728;BME280;65652;53.132;18.026;2023-04-25T01:58:36;99930.61;;;10.14;75.39
76728;BME280;65652;53.132;18.026;2023-04-25T02:01:17;99926.28;;;10.11;75.55
76728;BME280;65652;53.132;18.026;2023-04-25T02:03:47;99928.67;;;10.08;75.37
76728;BME280;65652;53.132;18.026;2023-04-25T02:06:26;99930.70;;;10.06;76.01
76728;BME280;65652;53.132;18.026;2023-04-25T02:08:54;99934.11;;;10.03;75.63
76728;BME280;65652;53.132;18.026;2023-04-25T02:11:21;99930.84;;;10.00;75.65
76728;BME280;65652;53.132;18.026;2023-04-25T02:14:20;99935.45;;;9.96;75.91
76728;BME280;65652;53.132;18.026;2023-04-25T02:17:05;99935.16;;;9.92;75.81
76728;BME280;65652;53.132;18.026;2023-04-25T02:19:32;99935.97;;;9.87;76.17
76728;BME280;65652;53.132;18.026;2023-04-25T02:21:59;99936.85;;;9.82;76.05
76728;BME280;65652;53.132;18.026;2023-04-25T02:24:26;99936.56;;;9.74;76.26
76728;BME280;65652;53.132;18.026;2023-04-25T02:26:56;99937.62;;;9.67;76.24
76728;BME280;65652;53.132;18.026;2023-04-25T02:29:23;99937.06;;;9.62;76.26
76728;BME280;65652;53.132;18.026;2023-04-25T02:31:49;99937.93;;;9.56;76.30
76728;BME280;65652;53.132;18.026;2023-04-25T02:34:17;99935.06;;;9.51;76.53
76728;BME280;65652;53.132;18.026;2023-04-25T02:36:44;99940.27;;;9.47;76.66
76728;BME280;65652;53.132;18.026;2023-04-25T02:39:11;99942.75;;;9.41;76.67
76728;BME280;65652;53.132;18.026;2023-04-25T02:41:38;99942.23;;;9.37;76.43
76728;BME280;65652;53.132;18.026;2023-04-25T02:44:05;99944.70;;;9.33;76.57
76728;BME280;65652;53.132;18.026;2023-04-25T02:46:32;99942.07;;;9.28;76.54
76728;BME280;65652;53.132;18.026;2023-04-25T02:49:01;99940.40;;;9.23;76.43
76728;BME280;65652;53.132;18.026;2023-04-25T02:51:28;99939.47;;;9.18;76.35
76728;BME280;65652;53.132;18.026;2023-04-25T02:53:55;99942.17;;;9.14;76.53
76728;BME280;65652;53.132;18.026;2023-04-25T02:56:22;99944.67;;;9.10;76.41
76728;BME280;65652;53.132;18.026;2023-04-25T02:58:49;99942.92;;;9.06;76.38
76728;BME280;65652;53.132;18.026;2023-04-25T03:01:16;99943.71;;;8.99;76.18
76728;BME280;65652;53.132;18.026;2023-04-25T03:03:43;99940.58;;;8.93;76.50
76728;BME280;65652;53.132;18.026;2023-04-25T03:06:10;99942.89;;;8.89;76.37
76728;BME280;65652;53.132;18.026;2023-04-25T03:08:37;99943.07;;;8.85;76.44
76728;BME280;65652;53.132;18.026;2023-04-25T03:11:04;99951.10;;;8.81;76.44
76728;BME280;65652;53.132;18.026;2023-04-25T03:13:31;99947.02;;;8.77;76.39
76728;BME280;65652;53.132;18.026;2023-04-25T03:15:58;99946.83;;;8.74;76.52
76728;BME280;65652;53.132;18.026;2023-04-25T03:18:26;99947.27;;;8.69;76.33
76728;BME280;65652;53.132;18.026;2023-04-25T03:20:55;99950.05;;;8.63;76.45
76728;BME280;65652;53.132;18.026;2023-04-25T03:23:22;99949.55;;;8.57;76.44
76728;BME280;65652;53.132;18.026;2023-04-25T03:25:49;99951.70;;;8.53;76.50
76728;BME280;65652;53.132;18.026;2023-04-25T03:28:16;99948.45;;;8.48;76.44
76728;BME280;65652;53.132;18.026;2023-04-25T03:30:43;99952.56;;;8.44;76.43
76728;BME280;65652;53.132;18.026;2023-04-25T03:33:10;99952.67;;;8.40;76.27
76728;BME280;65652;53.132;18.026;2023-04-25T03:35:37;99954.80;;;8.38;76.29
76728;BME280;65652;53.132;18.026;2023-04-25T03:38:04;99956.80;;;8.36;76.31
76728;BME280;65652;53.132;18.026;2023-04-25T03:40:34;99963.72;;;8.33;76.40
76728;BME280;65652;53.132;18.026;2023-04-25T03:43:31;99966.55;;;8.29;76.45
76728;BME280;65652;53.132;18.026;2023-04-25T03:46:02;99971.56;;;8.26;76.54
76728;BME280;65652;53.132;18.026;2023-04-25T03:48:28;99973.13;;;8.22;76.46
76728;BME280;65652;53.132;18.026;2023-04-25T03:50:55;99974.15;;;8.19;76.37
76728;BME280;65652;53.132;18.026;2023-04-25T03:53:22;99980.53;;;8.16;76.43
76728;BME280;65652;53.132;18.026;2023-04-25T03:56:22;99983.91;;;8.12;76.31
76728;BME280;65652;53.132;18.026;2023-04-25T03:58:54;99987.15;;;8.09;76.40
76728;BME280;65652;53.132;18.026;2023-04-25T04:01:23;99991.55;;;8.07;76.54
76728;BME280;65652;53.132;18.026;2023-04-25T04:03:50;99996.19;;;8.04;76.26
76728;BME280;65652;53.132;18.026;2023-04-25T04:06:17;99997.79;;;8.02;76.37
76728;BME280;65652;53.132;18.026;2023-04-25T04:08:47;100001.30;;;8.00;76.38
76728;BME280;65652;53.132;18.026;2023-04-25T04:11:14;99998.16;;;7.98;76.31
76728;BME280;65652;53.132;18.026;2023-04-25T04:13:41;100002.16;;;7.96;76.37
76728;BME280;65652;53.132;18.026;2023-04-25T04:16:08;100005.78;;;7.95;76.57
76728;BME280;65652;53.132;18.026;2023-04-25T04:18:36;100011.05;;;7.93;76.33
76728;BME280;65652;53.132;18.026;2023-04-25T04:21:03;100014.02;;;7.92;76.01
76728;BME280;65652;53.132;18.026;2023-04-25T04:23:32;100017.23;;;7.91;76.17
76728;BME280;65652;53.132;18.026;2023-04-25T04:26:01;100017.98;;;7.89;76.15
76728;BME280;65652;53.132;18.026;2023-04-25T04:28:44;100021.08;;;7.87;76.08
76728;BME280;65652;53.132;18.026;2023-04-25T04:31:26;100025.06;;;7.88;76.11
76728;BME280;65652;53.132;18.026;2023-04-25T04:33:53;100029.04;;;7.89;75.94
76728;BME280;65652;53.132;18.026;2023-04-25T04:36:20;100034.23;;;7.89;75.83
76728;BME280;65652;53.132;18.026;2023-04-25T04:38:49;100034.09;;;7.91;75.81
76728;BME280;65652;53.132;18.026;2023-04-25T04:41:31;100031.71;;;7.92;75.69
76728;BME280;65652;53.132;18.026;2023-04-25T04:44:09;100031.41;;;7.96;75.71
76728;BME280;65652;53.132;18.026;2023-04-25T04:46:49;100030.98;;;7.96;75.48
76728;BME280;65652;53.132;18.026;2023-04-25T04:49:32;100036.21;;;7.97;75.48
76728;BME280;65652;53.132;18.026;2023-04-25T04:52:20;100030.38;;;7.96;75.46
76728;BME280;65652;53.132;18.026;2023-04-25T04:55:16;100030.46;;;7.94;75.60
76728;BME280;65652;53.132;18.026;2023-04-25T04:58:04;100029.13;;;7.94;75.40
76728;BME280;65652;53.132;18.026;2023-04-25T05:00:57;100034.84;;;7.95;75.45
76728;BME280;65652;53.132;18.026;2023-04-25T05:03:34;100040.15;;;7.96;75.32
76728;BME280;65652;53.132;18.026;2023-04-25T05:06:03;100041.43;;;7.98;75.20
76728;BME280;65652;53.132;18.026;2023-04-25T05:08:39;100041.80;;;7.98;75.26
76728;BME280;65652;53.132;18.026;2023-04-25T05:11:29;100043.35;;;7.96;75.29
76728;BME280;65652;53.132;18.026;2023-04-25T05:14:15;100042.17;;;7.95;75.01
76728;BME280;65652;53.132;18.026;2023-04-25T05:16:48;100039.81;;;7.96;75.15
76728;BME280;65652;53.132;18.026;2023-04-25T05:19:25;100041.88;;;7.97;74.93
76728;BME280;65652;53.132;18.026;2023-04-25T05:22:11;100042.19;;;7.97;74.86
76728;BME280;65652;53.132;18.026;2023-04-25T05:25:10;100048.11;;;8.00;74.86
76728;BME280;65652;53.132;18.026;2023-04-25T05:27:56;100044.39;;;8.02;74.67
76728;BME280;65652;53.132;18.026;2023-04-25T05:30:38;100039.96;;;8.04;74.56
76728;BME280;65652;53.132;18.026;2023-04-25T05:33:09;100049.46;;;8.08;74.65
76728;BME280;65652;53.132;18.026;2023-04-25T05:35:36;100046.02;;;8.12;74.37
76728;BME280;65652;53.132;18.026;2023-04-25T05:38:03;100048.21;;;8.17;74.57
76728;BME280;65652;53.132;18.026;2023-04-25T05:40:51;100048.30;;;8.26;74.42
76728;BME280;65652;53.132;18.026;2023-04-25T05:43:41;100047.73;;;8.34;74.05
76728;BME280;65652;53.132;18.026;2023-04-25T05:46:26;100049.65;;;8.40;73.86
76728;BME280;65652;53.132;18.026;2023-04-25T05:49:12;100044.77;;;8.47;73.70
76728;BME280;65652;53.132;18.026;2023-04-25T05:52:02;100043.11;;;8.56;73.78
76728;BME280;65652;53.132;18.026;2023-04-25T05:54:48;100049.60;;;8.64;73.57
76728;BME280;65652;53.132;18.026;2023-04-25T05:57:23;100047.56;;;8.69;73.11
76728;BME280;65652;53.132;18.026;2023-04-25T05:59:51;100050.39;;;8.73;72.92
76728;BME280;65652;53.132;18.026;2023-04-25T06:02:19;100052.63;;;8.79;72.98
76728;BME280;65652;53.132;18.026;2023-04-25T06:04:49;100051.92;;;8.83;72.44
76728;BME280;65652;53.132;18.026;2023-04-25T06:07:18;100054.70;;;8.83;72.22
76728;BME280;65652;53.132;18.026;2023-04-25T06:09:45;100046.14;;;8.86;72.28
76728;BME280;65652;53.132;18.026;2023-04-25T06:12:11;100043.20;;;8.90;72.29
76728;BME280;65652;53.132;18.026;2023-04-25T06:14:40;100042.45;;;8.92;72.11
76728;BME280;65652;53.132;18.026;2023-04-25T06:17:07;100050.27;;;8.91;71.78
76728;BME280;65652;53.132;18.026;2023-04-25T06:19:35;100055.02;;;8.91;71.77
76728;BME280;65652;53.132;18.026;2023-04-25T06:22:03;100053.48;;;8.99;71.77
76728;BME280;65652;53.132;18.026;2023-04-25T06:24:31;100055.38;;;9.09;71.58
76728;BME280;65652;53.132;18.026;2023-04-25T06:26:57;100055.98;;;9.21;71.28
76728;BME280;65652;53.132;18.026;2023-04-25T06:29:24;100056.59;;;9.32;70.63
76728;BME280;65652;53.132;18.026;2023-04-25T06:31:51;100055.89;;;9.37;70.34
76728;BME280;65652;53.132;18.026;2023-04-25T06:34:19;100054.66;;;9.47;70.64
76728;BME280;65652;53.132;18.026;2023-04-25T06:36:46;100054.34;;;9.63;70.47
76728;BME280;65652;53.132;18.026;2023-04-25T06:39:15;100051.50;;;9.85;69.80
76728;BME280;65652;53.132;18.026;2023-04-25T06:41:42;100048.73;;;10.11;70.14
76728;BME280;65652;53.132;18.026;2023-04-25T06:44:15;100045.60;;;10.43;69.08
76728;BME280;65652;53.132;18.026;2023-04-25T06:46:51;100041.02;;;10.73;67.72
76728;BME280;65652;53.132;18.026;2023-04-25T06:49:19;100038.67;;;10.93;68.32
76728;BME280;65652;53.132;18.026;2023-04-25T06:51:46;100035.04;;;11.10;67.34
76728;BME280;65652;53.132;18.026;2023-04-25T06:54:13;100038.93;;;11.20;66.61
76728;BME280;65652;53.132;18.026;2023-04-25T06:56:46;100034.14;;;11.22;65.60
76728;BME280;65652;53.132;18.026;2023-04-25T06:59:14;100039.58;;;11.19;65.83
76728;BME280;65652;53.132;18.026;2023-04-25T07:01:43;100040.93;;;11.15;65.98
76728;BME280;65652;53.132;18.026;2023-04-25T07:04:15;100036.87;;;11.16;66.04
76728;BME280;65652;53.132;18.026;2023-04-25T07:06:46;100034.39;;;11.27;66.07
76728;BME280;65652;53.132;18.026;2023-04-25T07:09:16;100028.27;;;11.36;65.15
76728;BME280;65652;53.132;18.026;2023-04-25T07:11:45;100029.39;;;11.41;65.02
76728;BME280;65652;53.132;18.026;2023-04-25T07:14:12;100030.77;;;11.63;64.28
76728;BME280;65652;53.132;18.026;2023-04-25T07:16:40;100033.03;;;11.83;65.05
76728;BME280;65652;53.132;18.026;2023-04-25T07:19:08;100039.17;;;12.02;64.74
76728;BME280;65652;53.132;18.026;2023-04-25T07:21:35;100036.52;;;12.11;63.87
76728;BME280;65652;53.132;18.026;2023-04-25T07:24:03;100037.15;;;12.11;63.70
76728;BME280;65652;53.132;18.026;2023-04-25T07:26:34;100038.45;;;12.19;63.01
76728;BME280;65652;53.132;18.026;2023-04-25T07:29:36;100043.20;;;12.30;62.44
76728;BME280;65652;53.132;18.026;2023-04-25T07:32:04;100044.52;;;12.27;62.51
76728;BME280;65652;53.132;18.026;2023-04-25T07:34:31;100047.88;;;12.29;62.01
76728;BME280;65652;53.132;18.026;2023-04-25T07:36:59;100048.76;;;12.41;61.71
76728;BME280;65652;53.132;18.026;2023-04-25T07:39:26;100046.65;;;12.53;61.60
76728;BME280;65652;53.132;18.026;2023-04-25T07:41:54;100040.96;;;12.60;61.74
76728;BME280;65652;53.132;18.026;2023-04-25T07:44:24;100041.09;;;12.71;61.70
76728;BME280;65652;53.132;18.026;2023-04-25T07:46:52;100047.42;;;12.76;59.48
76728;BME280;65652;53.132;18.026;2023-04-25T07:49:19;100045.66;;;12.65;59.32
76728;BME280;65652;53.132;18.026;2023-04-25T07:51:46;100048.46;;;12.50;60.04
76728;BME280;65652;53.132;18.026;2023-04-25T07:54:15;100051.38;;;12.31;59.89
76728;BME280;65652;53.132;18.026;2023-04-25T07:56:49;100051.86;;;12.09;60.59
76728;BME280;65652;53.132;18.026;2023-04-25T07:59:17;100060.37;;;11.94;60.76
76728;BME280;65652;53.132;18.026;2023-04-25T08:01:45;100061.91;;;11.85;61.36
76728;BME280;65652;53.132;18.026;2023-04-25T08:04:13;100066.84;;;11.80;61.53
76728;BME280;65652;53.132;18.026;2023-04-25T08:07:00;100063.91;;;11.74;61.31
76728;BME280;65652;53.132;18.026;2023-04-25T08:09:30;100064.62;;;11.66;61.47
76728;BME280;65652;53.132;18.026;2023-04-25T08:12:01;100071.02;;;11.58;61.75
76728;BME280;65652;53.132;18.026;2023-04-25T08:14:31;100071.25;;;11.47;61.72
76728;BME280;65652;53.132;18.026;2023-04-25T08:17:03;100069.25;;;11.40;62.16
76728;BME280;65652;53.132;18.026;2023-04-25T08:19:31;100074.55;;;11.37;62.59
76728;BME280;65652;53.132;18.026;2023-04-25T08:21:58;100069.64;;;11.33;62.09
76728;BME280;65652;53.132;18.026;2023-04-25T08:24:30;100075.48;;;11.29;61.57
76728;BME280;65652;53.132;18.026;2023-04-25T08:26:58;100080.20;;;11.30;62.48
76728;BME280;65652;53.132;18.026;2023-04-25T08:29:26;100081.02;;;11.34;62.43
76728;BME280;65652;53.132;18.026;2023-04-25T08:31:53;100080.98;;;11.38;62.41
76728;BME280;65652;53.132;18.026;2023-04-25T08:34:20;100081.67;;;11.45;62.42
76728;BME280;65652;53.132;18.026;2023-04-25T08:36:51;100085.04;;;11.55;62.33
76728;BME280;65652;53.132;18.026;2023-04-25T08:39:41;100087.52;;;11.68;61.95
76728;BME280;65652;53.132;18.026;2023-04-25T08:42:33;100086.44;;;11.78;61.76
76728;BME280;65652;53.132;18.026;2023-04-25T08:45:04;100086.02;;;11.84;61.58
76728;BME280;65652;53.132;18.026;2023-04-25T08:47:33;100081.85;;;11.82;61.07
76728;BME280;65652;53.132;18.026;2023-04-25T08:50:03;100078.65;;;11.83;61.68
76728;BME280;65652;53.132;18.026;2023-04-25T08:52:37;100081.95;;;11.91;61.63
76728;BME280;65652;53.132;18.026;2023-04-25T08:55:09;100079.62;;;11.95;61.07
76728;BME280;65652;53.132;18.026;2023-04-25T08:57:36;100084.30;;;11.94;61.48
76728;BME280;65652;53.132;18.026;2023-04-25T09:00:04;100086.58;;;11.94;61.57
76728;BME280;65652;53.132;18.026;2023-04-25T09:02:33;100088.03;;;11.97;62.68
76728;BME280;65652;53.132;18.026;2023-04-25T09:05:03;100084.14;;;12.06;61.62
76728;BME280;65652;53.132;18.026;2023-04-25T09:07:31;100091.11;;;12.07;60.65
76728;BME280;65652;53.132;18.026;2023-04-25T09:09:58;100091.91;;;12.09;61.83
76728;BME280;65652;53.132;18.026;2023-04-25T09:12:31;100091.98;;;12.27;61.07
76728;BME280;65652;53.132;18.026;2023-04-25T09:15:07;100102.30;;;12.37;60.90
76728;BME280;65652;53.132;18.026;2023-04-25T09:17:56;100102.04;;;12.49;60.36
76728;BME280;65652;53.132;18.026;2023-04-25T09:20:23;100100.66;;;12.64;60.90
76728;BME280;65652;53.132;18.026;2023-04-25T09:23:05;100101.55;;;12.97;60.77
76728;BME280;65652;53.132;18.026;2023-04-25T09:25:36;100103.87;;;13.34;59.47
76728;BME280;65652;53.132;18.026;2023-04-25T09:28:07;100097.07;;;13.42;57.80
76728;BME280;65652;53.132;18.026;2023-04-25T09:30:36;100103.15;;;13.46;56.43
76728;BME280;65652;53.132;18.026;2023-04-25T09:33:31;100101.10;;;13.50;57.21
76728;BME280;65652;53.132;18.026;2023-04-25T09:36:11;100103.09;;;13.66;55.78
76728;BME280;65652;53.132;18.026;2023-04-25T09:39:01;100100.86;;;13.78;55.90
76728;BME280;65652;53.132;18.026;2023-04-25T09:41:37;100095.17;;;14.00;55.44
76728;BME280;65652;53.132;18.026;2023-04-25T09:44:05;100102.35;;;14.07;54.49
76728;BME280;65652;53.132;18.026;2023-04-25T09:46:35;100104.98;;;14.19;54.56
76728;BME280;65652;53.132;18.026;2023-04-25T09:49:14;100101.96;;;14.44;54.21
76728;BME280;65652;53.132;18.026;2023-04-25T09:52:19;100104.52;;;14.72;54.24
76728;BME280;65652;53.132;18.026;2023-04-25T09:54:56;100110.17;;;14.74;52.58
76728;BME280;65652;53.132;18.026;2023-04-25T09:57:29;100116.94;;;14.57;51.62
76728;BME280;65652;53.132;18.026;2023-04-25T10:00:00;100118.64;;;14.36;51.72
76728;BME280;65652;53.132;18.026;2023-04-25T10:02:31;100112.02;;;14.19;52.45
76728;BME280;65652;53.132;18.026;2023-04-25T10:05:05;100115.45;;;14.14;52.80
76728;BME280;65652;53.132;18.026;2023-04-25T10:07:38;100118.06;;;14.11;52.68
76728;BME280;65652;53.132;18.026;2023-04-25T10:10:12;100114.88;;;14.11;52.90
76728;BME280;65652;53.132;18.026;2023-04-25T10:12:39;100120.82;;;14.21;53.20
76728;BME280;65652;53.132;18.026;2023-04-25T10:15:07;100120.75;;;14.32;52.03
76728;BME280;65652;53.132;18.026;2023-04-25T10:17:35;100116.00;;;14.42;53.38
76728;BME280;65652;53.132;18.026;2023-04-25T10:20:03;100121.02;;;14.64;54.41
76728;BME280;65652;53.132;18.026;2023-04-25T10:22:36;100122.70;;;14.77;54.64
76728;BME280;65652;53.132;18.026;2023-04-25T10:25:06;100125.22;;;14.86;52.41
76728;BME280;65652;53.132;18.026;2023-04-25T10:27:35;100123.65;;;14.72;52.11
76728;BME280;65652;53.132;18.026;2023-04-25T10:30:08;100125.92;;;14.67;52.94
76728;BME280;65652;53.132;18.026;2023-04-25T10:32:38;100123.31;;;14.79;53.22
76728;BME280;65652;53.132;18.026;2023-04-25T10:35:15;100122.79;;;14.78;52.08
76728;BME280;65652;53.132;18.026;2023-04-25T10:38:11;100127.20;;;14.72;52.33
76728;BME280;65652;53.132;18.026;2023-04-25T10:40:40;100131.36;;;14.68;51.51
76728;BME280;65652;53.132;18.026;2023-04-25T10:43:42;100131.58;;;14.57;51.13
76728;BME280;65652;53.132;18.026;2023-04-25T10:46:25;100133.80;;;14.43;51.07
76728;BME280;65652;53.132;18.026;2023-04-25T10:48:57;100135.93;;;14.25;50.74
76728;BME280;65652;53.132;18.026;2023-04-25T10:56:28;100133.52;;;14.24;51.94
76728;BME280;65652;53.132;18.026;2023-04-25T10:59:22;100128.81;;;14.29;52.04
76728;BME280;65652;53.132;18.026;2023-04-25T11:01:52;100134.20;;;14.40;52.24
76728;BME280;65652;53.132;18.026;2023-04-25T11:04:33;100131.20;;;14.51;51.72
76728;BME280;65652;53.132;18.026;2023-04-25T11:07:32;100129.54;;;14.61;51.80
76728;BME280;65652;53.132;18.026;2023-04-25T11:10:03;100130.04;;;14.75;51.68
76728;BME280;65652;53.132;18.026;2023-04-25T11:12:31;100127.88;;;14.87;51.57
76728;BME280;65652;53.132;18.026;2023-04-25T11:15:01;100132.16;;;14.90;50.79
76728;BME280;65652;53.132;18.026;2023-04-25T11:17:28;100137.80;;;14.89;51.35
76728;BME280;65652;53.132;18.026;2023-04-25T11:19:56;100134.70;;;14.90;50.34
76728;BME280;65652;53.132;18.026;2023-04-25T11:22:24;100136.81;;;14.88;50.58
76728;BME280;65652;53.132;18.026;2023-04-25T11:24:51;100136.63;;;14.84;50.51
76728;BME280;65652;53.132;18.026;2023-04-25T11:27:18;100136.11;;;14.81;50.49
76728;BME280;65652;53.132;18.026;2023-04-25T11:29:45;100136.01;;;14.72;50.45
76728;BME280;65652;53.132;18.026;2023-04-25T11:32:15;100140.92;;;14.68;51.06
76728;BME280;65652;53.132;18.026;2023-04-25T11:34:44;100139.57;;;14.63;50.95
76728;BME280;65652;53.132;18.026;2023-04-25T11:37:12;100143.04;;;14.45;50.96
76728;BME280;65652;53.132;18.026;2023-04-25T11:39:44;100143.10;;;14.29;51.00
76728;BME280;65652;53.132;18.026;2023-04-25T11:42:12;100144.58;;;14.09;51.13
76728;BME280;65652;53.132;18.026;2023-04-25T11:44:40;100144.47;;;14.01;52.10
76728;BME280;65652;53.132;18.026;2023-04-25T11:47:07;100150.04;;;14.02;51.79
76728;BME280;65652;53.132;18.026;2023-04-25T11:49:35;100146.71;;;13.92;51.81
76728;BME280;65652;53.132;18.026;2023-04-25T11:52:02;100148.02;;;13.82;51.89
76728;BME280;65652;53.132;18.026;2023-04-25T11:54:35;100147.38;;;13.71;51.95
76728;BME280;65652;53.132;18.026;2023-04-25T11:57:03;100151.52;;;13.56;52.07
76728;BME280;65652;53.132;18.026;2023-04-25T11:59:30;100154.10;;;13.42;52.21
76728;BME280;65652;53.132;18.026;2023-04-25T12:01:57;100157.81;;;13.36;52.42
76728;BME280;65652;53.132;18.026;2023-04-25T12:04:24;100151.92;;;13.33;52.60
76728;BME280;65652;53.132;18.026;2023-04-25T12:06:54;100153.27;;;13.37;52.70
76728;BME280;65652;53.132;18.026;2023-04-25T12:09:29;100153.14;;;13.45;52.71
76728;BME280;65652;53.132;18.026;2023-04-25T12:11:59;100153.75;;;13.54;52.16
76728;BME280;65652;53.132;18.026;2023-04-25T12:14:31;100156.42;;;13.65;51.57
76728;BME280;65652;53.132;18.026;2023-04-25T12:17:00;100156.30;;;13.64;50.96
76728;BME280;65652;53.132;18.026;2023-04-25T12:19:34;100157.02;;;13.63;50.72
76728;BME280;65652;53.132;18.026;2023-04-25T12:22:02;100157.29;;;13.62;50.82
76728;BME280;65652;53.132;18.026;2023-04-25T12:24:33;100159.75;;;13.62;50.49
76728;BME280;65652;53.132;18.026;2023-04-25T12:29:29;100159.06;;;13.84;51.20
76728;BME280;65652;53.132;18.026;2023-04-25T12:31:58;100159.02;;;14.00;50.75
76728;BME280;65652;53.132;18.026;2023-04-25T12:34:25;100151.79;;;14.13;50.37
76728;BME280;65652;53.132;18.026;2023-04-25T12:36:52;100150.23;;;14.24;50.23
76728;BME280;65652;53.132;18.026;2023-04-25T12:39:21;100150.95;;;14.32;49.80
76728;BME280;65652;53.132;18.026;2023-04-25T12:41:49;100156.77;;;14.35;49.85
76728;BME280;65652;53.132;18.026;2023-04-25T12:44:16;100155.77;;;14.41;50.02
76728;BME280;65652;53.132;18.026;2023-04-25T12:46:43;100155.70;;;14.46;49.98
76728;BME280;65652;53.132;18.026;2023-04-25T12:49:11;100157.88;;;14.49;49.75
76728;BME280;65652;53.132;18.026;2023-04-25T12:51:38;100153.92;;;14.48;49.32
76728;BME280;65652;53.132;18.026;2023-04-25T12:54:05;100154.67;;;14.44;48.91
76728;BME280;65652;53.132;18.026;2023-04-25T12:56:35;100155.39;;;14.42;48.56
76728;BME280;65652;53.132;18.026;2023-04-25T12:59:03;100153.52;;;14.48;48.99
76728;BME280;65652;53.132;18.026;2023-04-25T13:01:30;100152.94;;;14.62;48.76
76728;BME280;65652;53.132;18.026;2023-04-25T13:03:57;100143.23;;;14.82;48.05
76728;BME280;65652;53.132;18.026;2023-04-25T13:06:24;100138.07;;;14.90;47.76
76728;BME280;65652;53.132;18.026;2023-04-25T13:08:51;100141.21;;;14.87;47.21
76728;BME280;65652;53.132;18.026;2023-04-25T13:11:17;100143.60;;;14.74;47.60
76728;BME280;65652;53.132;18.026;2023-04-25T13:13:44;100139.85;;;14.60;48.43